This is the latest recevied weather packets stored in our database for station/object K7AZM. If no packets are shown the sender has not sent any weather packets the latest 10 day(s).
| Time | Temp. | Humidity | Pressure | Rain* | Wind** | Luminosity | Snow |
|---|---|---|---|---|---|---|---|
| 1777335022 | 25° C | 16% | 1011.9 hPa | 0 mm | - | - | - |
| 1777334422 | 25.56° C | 16% | 1012 hPa | 0 mm | - | - | - |
| 1777332623 | 25.56° C | 16% | 1012.2 hPa | 0 mm | - | - | - |
| 1777330522 | 25° C | 17% | 1012.2 hPa | 0 mm | - | - | - |
| 1777330223 | 25° C | 17% | 1012.3 hPa | 0 mm | - | - | - |
| 1777329322 | 25.56° C | 17% | 1012.4 hPa | 0 mm | - | - | - |
| 1777324822 | 25.56° C | 17% | 1013.4 hPa | 0 mm | - | - | - |
| 1777318222 | 23.89° C | 20% | 1014.7 hPa | 0 mm | - | - | - |
| 1777316743 | 23.89° C | 19% | 1015.1 hPa | 0 mm | - | - | - |
| 1777316422 | 23.89° C | 19% | 1015.2 hPa | 0 mm | - | - | - |
| 1777315222 | 23.33° C | 20% | 1015.4 hPa | 0 mm | - | - | - |
| 1777314922 | 23.33° C | 20% | 1015.5 hPa | 0 mm | - | - | - |
| 1777314022 | 22.22° C | 20% | 1015.6 hPa | 0 mm | - | - | - |
| 1777313422 | 22.78° C | 20% | 1015.7 hPa | 0 mm | - | - | - |
| 1777310422 | 22.22° C | 21% | 1016 hPa | 0 mm | - | - | - |
| 1777309822 | 22.22° C | 20% | 1016 hPa | 0 mm | - | - | - |
| 1777308322 | 21.11° C | 22% | 1015.9 hPa | 0 mm | - | - | - |
| 1777305923 | 21.11° C | 27% | 1015.7 hPa | 0 mm | - | - | - |
| 1777305322 | 21.11° C | 27% | 1015.6 hPa | 0 mm | - | - | - |
| 1777304722 | 20.56° C | 29% | 1015.6 hPa | 0 mm | - | - | - |
| 1777303243 | 19.44° C | 32% | 1015.6 hPa | 0 mm | - | - | - |
| 1777302622 | 18.89° C | 32% | 1015.5 hPa | 0 mm | - | - | - |
| 1777299922 | 17.22° C | 36% | 1015.2 hPa | 0 mm | - | - | - |
| 1777299622 | 16.67° C | 37% | 1015.2 hPa | 0 mm | - | - | - |
| 1777296922 | 13.33° C | 45% | 1014.5 hPa | 0 mm | - | - | - |
* Rain latest hour (hover to see other rain measurements)
** Current wind speed in m/s (hover to see current wind gust speed)